createdAt,value
2023-03-13T00:01:35.284Z,21.17
2023-03-13T00:04:06.089Z,16.17
2023-03-13T00:06:36.753Z,19.67
2023-03-13T00:09:06.770Z,18.80
2023-03-13T00:11:36.615Z,16.97
2023-03-13T00:14:06.826Z,16.17
2023-03-13T00:16:43.437Z,14.83
2023-03-13T00:19:11.815Z,21.10
2023-03-13T00:21:41.470Z,14.60
2023-03-13T00:24:12.567Z,21.83
2023-03-13T00:26:42.501Z,15.17
2023-03-13T00:29:10.687Z,18.10
2023-03-13T00:31:41.811Z,16.23
2023-03-13T00:34:11.101Z,21.90
2023-03-13T00:36:39.775Z,15.57
2023-03-13T00:39:10.065Z,18.47
2023-03-13T00:41:39.343Z,15.50
2023-03-13T00:44:09.625Z,16.87
2023-03-13T00:46:39.398Z,18.27
2023-03-13T00:49:11.142Z,18.33
2023-03-13T00:51:39.720Z,20.17
2023-03-13T00:54:08.106Z,17.33
2023-03-13T00:56:37.292Z,20.27
2023-03-13T00:59:06.165Z,21.47
2023-03-13T01:01:37.596Z,19.10
2023-03-13T01:04:08.139Z,18.73
2023-03-13T01:06:38.221Z,22.47
2023-03-13T01:09:08.289Z,13.83
2023-03-13T01:11:39.721Z,22.43
2023-03-13T01:14:10.347Z,26.87
2023-03-13T01:16:41.266Z,19.20
2023-03-13T01:19:14.062Z,16.53
2023-03-13T01:21:42.707Z,16.50
2023-03-13T01:24:11.354Z,14.67
2023-03-13T01:26:43.054Z,15.90
2023-03-13T01:29:11.336Z,18.93
2023-03-13T01:31:41.516Z,17.40
2023-03-13T01:34:12.583Z,20.97
2023-03-13T01:36:40.636Z,16.93
2023-03-13T01:39:09.922Z,17.57
2023-03-13T01:41:39.703Z,18.47
2023-03-13T01:44:08.426Z,14.87
2023-03-13T01:46:36.752Z,17.50
2023-03-13T01:49:09.302Z,17.57
2023-03-13T01:51:42.104Z,23.07
2023-03-13T01:54:12.899Z,15.97
2023-03-13T01:56:45.462Z,15.93
2023-03-13T01:59:16.717Z,20.47
2023-03-13T02:01:47.315Z,19.67
2023-03-13T02:04:19.617Z,16.50
2023-03-13T02:06:52.135Z,14.67
2023-03-13T02:09:24.358Z,15.50
2023-03-13T02:11:58.903Z,18.63
2023-03-13T02:14:32.075Z,18.77
2023-03-13T02:17:00.581Z,16.70
2023-03-13T02:19:39.558Z,18.43
2023-03-13T02:22:14.569Z,17.77
2023-03-13T02:24:49.185Z,13.13
2023-03-13T02:27:20.502Z,19.07
2023-03-13T02:29:50.195Z,15.40
2023-03-13T02:32:18.876Z,20.53
2023-03-13T02:34:51.427Z,17.13
2023-03-13T02:37:22.107Z,19.43
2023-03-13T02:39:52.991Z,15.70
2023-03-13T02:42:24.706Z,17.27
2023-03-13T02:44:53.478Z,17.63
2023-03-13T02:47:24.413Z,17.67
2023-03-13T02:49:53.182Z,17.10
2023-03-13T02:52:25.840Z,17.10
2023-03-13T02:54:59.295Z,19.43
2023-03-13T02:57:29.424Z,13.73
2023-03-13T02:59:57.853Z,18.70
2023-03-13T03:02:26.170Z,19.20
2023-03-13T03:04:54.511Z,20.20
2023-03-13T03:07:22.836Z,19.13
2023-03-13T03:09:53.185Z,21.30
2023-03-13T03:12:21.358Z,16.80
2023-03-13T03:14:51.170Z,22.07
2023-03-13T03:17:19.352Z,22.83
2023-03-13T03:19:47.629Z,16.40
2023-03-13T03:22:16.002Z,17.73
2023-03-13T03:24:43.991Z,24.20
2023-03-13T03:27:12.293Z,15.50
2023-03-13T03:29:40.628Z,15.93
2023-03-13T03:32:11.312Z,17.53
2023-03-13T03:34:39.716Z,21.63
2023-03-13T03:37:07.852Z,17.07
2023-03-13T03:39:36.792Z,16.67
2023-03-13T03:42:06.426Z,19.57
2023-03-13T03:44:34.983Z,18.23
2023-03-13T03:47:03.246Z,15.10
2023-03-13T03:49:33.192Z,19.07
2023-03-13T03:52:01.350Z,15.13
2023-03-13T03:54:29.642Z,16.30
2023-03-13T03:56:58.038Z,13.93
2023-03-13T03:59:26.513Z,17.83
2023-03-13T04:01:54.917Z,12.33
2023-03-13T04:04:23.443Z,14.03
2023-03-13T04:06:54.465Z,12.13
2023-03-13T04:09:24.849Z,11.90
2023-03-13T04:11:53.230Z,13.43
2023-03-13T04:14:21.380Z,17.37
2023-03-13T04:16:49.878Z,16.47
2023-03-13T04:19:22.328Z,16.77
2023-03-13T04:21:51.142Z,13.33
2023-03-13T04:24:21.052Z,16.23
2023-03-13T04:26:52.252Z,13.23
2023-03-13T04:29:21.773Z,16.43
2023-03-13T04:31:50.292Z,15.27
2023-03-13T04:34:18.757Z,15.97
2023-03-13T04:36:47.910Z,13.50
2023-03-13T04:39:16.051Z,17.63
2023-03-13T04:41:45.608Z,11.07
2023-03-13T04:44:13.919Z,16.43
2023-03-13T04:46:42.027Z,18.10
2023-03-13T04:49:10.358Z,13.33
2023-03-13T04:51:39.287Z,12.10
2023-03-13T04:54:07.397Z,10.70
2023-03-13T04:56:43.288Z,11.67
2023-03-13T04:59:15.431Z,11.80
2023-03-13T05:01:44.564Z,16.10
2023-03-13T05:04:13.906Z,13.60
2023-03-13T05:06:42.057Z,16.17
2023-03-13T05:09:10.483Z,14.87
2023-03-13T05:11:40.563Z,15.77
2023-03-13T05:14:10.933Z,16.13
2023-03-13T05:16:41.073Z,18.87
2023-03-13T05:19:09.665Z,16.63
2023-03-13T05:21:39.269Z,13.53
2023-03-13T05:24:08.237Z,16.43
2023-03-13T05:26:38.215Z,18.53
2023-03-13T05:29:06.454Z,17.43
2023-03-13T05:31:34.882Z,15.57
2023-03-13T05:34:04.701Z,18.00
2023-03-13T05:36:32.932Z,17.87
2023-03-13T05:39:01.760Z,18.63
2023-03-13T05:41:30.353Z,22.63
2023-03-13T05:43:59.140Z,17.80
2023-03-13T05:46:27.334Z,23.20
2023-03-13T05:48:55.845Z,18.50
2023-03-13T05:51:25.604Z,19.67
2023-03-13T05:53:53.748Z,22.30
2023-03-13T05:56:21.840Z,15.90
2023-03-13T05:58:50.363Z,15.27
2023-03-13T06:01:18.918Z,20.70
2023-03-13T06:03:51.022Z,13.37
2023-03-13T06:06:19.177Z,21.17
2023-03-13T06:08:49.218Z,23.37
2023-03-13T06:11:17.539Z,20.10
2023-03-13T06:13:46.154Z,22.07
2023-03-13T06:16:14.536Z,20.13
2023-03-13T06:18:42.773Z,20.17
2023-03-13T06:21:10.937Z,20.33
2023-03-13T06:23:39.574Z,21.70
2023-03-13T06:26:10.767Z,19.80
2023-03-13T06:28:39.196Z,20.10
2023-03-13T06:31:10.106Z,17.03
2023-03-13T06:33:40.468Z,18.43
2023-03-13T06:36:09.408Z,20.13
2023-03-13T06:38:40.421Z,17.17
2023-03-13T06:41:08.584Z,20.17
2023-03-13T06:43:41.146Z,15.23
2023-03-13T06:46:09.852Z,14.13
2023-03-13T06:48:38.230Z,18.13
2023-03-13T06:51:07.143Z,16.63
2023-03-13T06:53:35.558Z,17.60
2023-03-13T06:56:04.397Z,16.43
2023-03-13T06:58:33.178Z,16.63
2023-03-13T07:01:08.564Z,19.87
2023-03-13T07:03:37.490Z,16.43
2023-03-13T07:06:07.477Z,19.10
2023-03-13T07:08:37.608Z,20.40
2023-03-13T07:11:08.453Z,21.50
2023-03-13T07:13:37.367Z,23.07
2023-03-13T07:16:09.011Z,20.33
2023-03-13T07:18:38.521Z,21.23
2023-03-13T07:21:07.224Z,23.03
2023-03-13T07:23:36.937Z,26.87
2023-03-13T07:26:07.382Z,17.73
2023-03-13T07:28:37.709Z,17.20
2023-03-13T07:31:09.891Z,17.93
2023-03-13T07:33:38.227Z,19.20
2023-03-13T07:36:07.284Z,17.70
2023-03-13T07:38:37.976Z,19.77
2023-03-13T07:41:09.319Z,22.83
2023-03-13T07:43:38.314Z,17.27
2023-03-13T07:46:10.590Z,18.80
2023-03-13T07:48:41.795Z,21.73
2023-03-13T07:51:13.483Z,16.47
2023-03-13T07:53:41.905Z,18.93
2023-03-13T07:56:15.670Z,16.80
2023-03-13T07:58:45.119Z,20.47
2023-03-13T08:01:18.441Z,15.93
2023-03-13T08:03:49.360Z,20.67
2023-03-13T08:06:19.547Z,19.13
2023-03-13T08:08:51.780Z,16.23
2023-03-13T08:11:21.711Z,16.63
2023-03-13T08:13:51.156Z,12.23
2023-03-13T08:16:22.295Z,11.13
2023-03-13T08:18:52.074Z,7.97
2023-03-13T08:21:22.397Z,8.10
2023-03-13T08:23:54.379Z,8.57
2023-03-13T08:26:24.888Z,10.07
2023-03-13T08:28:55.289Z,6.27
2023-03-13T08:31:27.299Z,6.97
2023-03-13T08:33:56.163Z,5.20
2023-03-13T08:36:27.295Z,4.73
2023-03-13T08:38:59.428Z,4.47
2023-03-13T08:41:30.109Z,6.20
2023-03-13T08:43:59.489Z,4.57
2023-03-13T08:46:32.195Z,5.77
2023-03-13T08:49:00.641Z,5.13
2023-03-13T08:51:30.145Z,5.47
2023-03-13T08:53:58.794Z,6.23
2023-03-13T08:56:31.566Z,5.30
2023-03-13T08:59:01.150Z,4.20
2023-03-13T09:01:32.530Z,4.27
2023-03-13T09:04:03.991Z,3.90
2023-03-13T09:06:33.531Z,3.77
2023-03-13T09:09:02.358Z,4.87
2023-03-13T09:11:31.465Z,2.97
2023-03-13T09:14:01.024Z,4.77
2023-03-13T09:16:34.904Z,2.87
2023-03-13T09:19:03.481Z,4.63
2023-03-13T09:21:34.627Z,3.13
2023-03-13T09:24:03.352Z,2.87
2023-03-13T09:26:31.883Z,3.17
2023-03-13T09:29:00.198Z,4.07
2023-03-13T09:31:31.992Z,4.73
2023-03-13T09:34:01.048Z,4.63
2023-03-13T09:36:29.718Z,4.13
2023-03-13T09:39:00.044Z,4.13
2023-03-13T09:41:34.469Z,4.07
2023-03-13T09:44:08.377Z,3.00
2023-03-13T09:46:45.856Z,3.50
2023-03-13T09:49:29.965Z,3.03
2023-03-13T09:52:06.038Z,2.83
2023-03-13T09:54:39.679Z,4.70
2023-03-13T09:57:15.813Z,1.90
2023-03-13T09:59:51.467Z,4.70
2023-03-13T10:02:28.842Z,3.40
2023-03-13T10:05:06.650Z,5.63
2023-03-13T10:07:35.046Z,4.20
2023-03-13T10:10:05.673Z,2.60
2023-03-13T10:12:45.292Z,2.80
2023-03-13T10:15:30.680Z,3.70
2023-03-13T10:18:03.335Z,5.00
2023-03-13T10:20:36.943Z,3.53
2023-03-13T10:23:12.554Z,3.37
2023-03-13T10:25:41.594Z,5.73
2023-03-13T10:28:13.976Z,5.23
2023-03-13T10:30:47.150Z,2.67
2023-03-13T10:33:24.671Z,4.67
2023-03-13T10:36:11.938Z,3.20
2023-03-13T10:38:51.027Z,1.97
2023-03-13T10:41:31.066Z,1.93
2023-03-13T10:44:04.727Z,2.67
2023-03-13T10:46:35.445Z,3.97
2023-03-13T10:49:14.861Z,2.87
2023-03-13T10:51:48.665Z,3.10
2023-03-13T10:54:23.283Z,4.53
2023-03-13T10:56:52.107Z,2.83
2023-03-13T10:59:26.187Z,3.80
2023-03-13T11:02:00.242Z,3.20
2023-03-13T11:04:34.867Z,3.33
2023-03-13T11:07:05.595Z,3.93
2023-03-13T11:09:37.446Z,4.10
2023-03-13T11:12:18.971Z,5.23
2023-03-13T11:14:48.026Z,4.13
2023-03-13T11:17:26.279Z,3.43
2023-03-13T11:20:05.925Z,3.77
2023-03-13T11:22:44.267Z,3.60
2023-03-13T11:25:23.806Z,3.17
2023-03-13T11:28:09.749Z,3.77
2023-03-13T11:31:06.899Z,1.93
2023-03-13T11:33:43.786Z,2.13
2023-03-13T11:36:21.087Z,3.50
2023-03-13T11:38:55.484Z,3.93
2023-03-13T11:41:43.035Z,40.93
2023-03-13T11:44:34.253Z,20.57
2023-03-13T11:47:16.384Z,3.40
2023-03-13T11:50:00.583Z,2.03
2023-03-13T11:52:53.271Z,9.60
2023-03-13T11:55:43.211Z,4.97
2023-03-13T11:58:25.423Z,7.87
2023-03-13T12:00:59.545Z,4.50
2023-03-13T12:03:37.849Z,4.23
2023-03-13T12:06:27.394Z,4.03
2023-03-13T12:09:06.653Z,6.63
2023-03-13T12:11:43.884Z,4.80
2023-03-13T12:14:16.511Z,2.23
2023-03-13T12:16:50.602Z,4.30
2023-03-13T12:19:25.316Z,2.50
2023-03-13T12:21:56.074Z,3.33
2023-03-13T12:24:31.813Z,5.03
2023-03-13T12:27:05.398Z,3.00
2023-03-13T12:29:45.087Z,3.27
2023-03-13T12:32:20.213Z,3.83
2023-03-13T12:35:02.483Z,3.97
2023-03-13T12:37:42.046Z,2.83
2023-03-13T12:40:23.491Z,4.33
2023-03-13T12:42:58.857Z,5.30
2023-03-13T12:45:29.762Z,3.70
2023-03-13T12:48:28.418Z,3.80
2023-03-13T12:51:09.679Z,5.57
2023-03-13T12:54:01.282Z,3.17
2023-03-13T12:56:49.803Z,4.27
2023-03-13T12:59:22.270Z,4.00
2023-03-13T13:01:56.028Z,4.73
2023-03-13T13:04:26.525Z,4.63
2023-03-13T13:07:02.666Z,3.23
2023-03-13T13:09:32.172Z,4.77
2023-03-13T13:12:07.408Z,2.63
2023-03-13T13:15:04.064Z,2.87
2023-03-13T13:17:43.380Z,4.23
2023-03-13T13:20:42.732Z,3.37
2023-03-13T13:23:48.300Z,4.83
2023-03-13T13:26:50.868Z,5.63
2023-03-13T13:29:56.601Z,3.93
2023-03-13T13:32:36.683Z,6.10
2023-03-13T13:35:07.979Z,3.70
2023-03-13T13:37:39.078Z,5.57
2023-03-13T13:40:28.349Z,4.97
2023-03-13T13:42:59.150Z,6.77
2023-03-13T13:45:32.912Z,6.73
2023-03-13T13:48:33.129Z,5.10
2023-03-13T13:51:34.649Z,4.97
2023-03-13T13:54:07.873Z,5.93
2023-03-13T13:56:47.302Z,4.77
2023-03-13T13:59:28.804Z,5.43
2023-03-13T14:02:21.429Z,5.23
2023-03-13T14:04:56.895Z,5.37
2023-03-13T14:07:34.260Z,3.23
2023-03-13T14:10:09.093Z,3.43
2023-03-13T14:12:39.454Z,4.70
2023-03-13T14:15:14.627Z,3.80
2023-03-13T14:17:45.175Z,4.93
2023-03-13T14:20:39.030Z,3.33
2023-03-13T14:23:09.478Z,3.57
2023-03-13T14:25:46.941Z,4.23
2023-03-13T14:28:23.160Z,6.70
2023-03-13T14:30:54.180Z,3.50
2023-03-13T14:33:23.009Z,5.17
2023-03-13T14:35:53.120Z,4.87
2023-03-13T14:38:23.485Z,5.30
2023-03-13T14:40:53.364Z,4.73
2023-03-13T14:43:32.525Z,5.17
2023-03-13T14:46:02.422Z,12.73
2023-03-13T14:48:33.337Z,15.90
2023-03-13T14:51:15.878Z,13.77
2023-03-13T14:53:58.282Z,9.30
2023-03-13T14:56:35.202Z,7.60
2023-03-13T14:59:16.828Z,8.63
2023-03-13T15:01:45.298Z,8.43
2023-03-13T15:04:13.663Z,8.57
2023-03-13T15:06:45.816Z,10.97
2023-03-13T15:09:24.201Z,7.57
2023-03-13T15:12:07.503Z,7.80
2023-03-13T15:14:41.429Z,6.40
2023-03-13T15:17:17.739Z,6.47
2023-03-13T15:19:50.262Z,10.37
2023-03-13T15:22:26.298Z,8.30
2023-03-13T15:25:05.678Z,10.63
2023-03-13T15:27:35.109Z,6.90
2023-03-13T15:30:04.155Z,6.53
2023-03-13T15:32:35.879Z,10.63
2023-03-13T15:35:23.139Z,6.90
2023-03-13T15:37:53.031Z,8.40
2023-03-13T15:40:22.128Z,7.00
2023-03-13T15:42:51.087Z,9.57
2023-03-13T15:45:21.850Z,8.87
2023-03-13T15:47:50.243Z,11.00
2023-03-13T15:50:25.723Z,8.30
2023-03-13T15:53:00.792Z,8.13
2023-03-13T15:55:30.523Z,10.53
2023-03-13T15:57:59.462Z,6.27
2023-03-13T16:00:35.983Z,5.07
2023-03-13T16:03:04.242Z,6.27
2023-03-13T16:05:32.635Z,5.33
2023-03-13T16:08:04.488Z,5.60
2023-03-13T16:10:34.489Z,5.73
2023-03-13T16:13:03.688Z,2.93
2023-03-13T16:15:33.253Z,3.63
2023-03-13T16:18:02.858Z,4.00
2023-03-13T16:20:36.308Z,3.17
2023-03-13T16:23:15.154Z,4.57
2023-03-13T16:25:44.347Z,3.33
2023-03-13T16:28:13.889Z,4.30
2023-03-13T16:30:43.953Z,3.27
2023-03-13T16:33:13.626Z,3.77
2023-03-13T16:35:56.578Z,6.23
2023-03-13T16:38:30.385Z,4.37
2023-03-13T16:41:00.920Z,7.93
2023-03-13T16:43:29.503Z,6.37
2023-03-13T16:45:58.274Z,4.23
2023-03-13T16:48:26.724Z,5.13
2023-03-13T16:50:55.194Z,4.10
2023-03-13T16:53:23.905Z,2.50
2023-03-13T16:55:55.946Z,3.63
2023-03-13T16:58:24.285Z,3.97
2023-03-13T17:01:05.050Z,2.57
2023-03-13T17:03:34.881Z,3.90
2023-03-13T17:06:03.301Z,2.50
2023-03-13T17:08:33.397Z,3.00
2023-03-13T17:11:04.877Z,4.70
2023-03-13T17:13:33.314Z,2.77
2023-03-13T17:16:01.728Z,3.23
2023-03-13T17:18:31.789Z,3.40
2023-03-13T17:21:02.589Z,2.70
2023-03-13T17:23:32.216Z,2.37
2023-03-13T17:26:02.037Z,2.63
2023-03-13T17:28:32.494Z,2.57
2023-03-13T17:31:00.665Z,3.50
2023-03-13T17:33:30.191Z,1.77
2023-03-13T17:35:59.125Z,2.03
2023-03-13T17:38:28.001Z,3.50
2023-03-13T17:40:56.417Z,4.03
2023-03-13T17:43:24.830Z,3.43
2023-03-13T17:45:55.702Z,2.37
2023-03-13T17:48:26.055Z,2.80
2023-03-13T17:50:55.433Z,4.00
2023-03-13T17:53:25.271Z,5.70
2023-03-13T17:55:53.453Z,4.00
2023-03-13T17:58:21.580Z,4.33
2023-03-13T18:00:51.232Z,2.40
2023-03-13T18:03:21.525Z,4.93
2023-03-13T18:05:50.023Z,2.97
2023-03-13T18:08:18.742Z,4.83
2023-03-13T18:10:49.281Z,4.00
2023-03-13T18:13:18.444Z,4.03
2023-03-13T18:15:47.336Z,4.80
2023-03-13T18:18:19.199Z,6.47
2023-03-13T18:20:51.852Z,4.90
2023-03-13T18:23:20.239Z,7.20
2023-03-13T18:25:48.847Z,5.03
2023-03-13T18:28:17.193Z,4.30
2023-03-13T18:30:45.407Z,4.53
2023-03-13T18:33:13.772Z,4.60
2023-03-13T18:35:41.915Z,3.67
2023-03-13T18:38:14.077Z,3.00
2023-03-13T18:40:42.554Z,6.33
2023-03-13T18:43:11.025Z,4.73
2023-03-13T18:45:39.533Z,3.93
2023-03-13T18:48:11.853Z,4.03
2023-03-13T18:50:41.615Z,7.17
2023-03-13T18:53:10.972Z,6.73
2023-03-13T18:55:40.950Z,4.13
2023-03-13T18:58:11.825Z,5.50
2023-03-13T19:00:40.350Z,4.83
2023-03-13T19:03:12.127Z,5.70
2023-03-13T19:05:41.278Z,5.60
2023-03-13T19:08:12.958Z,7.00
2023-03-13T19:10:45.343Z,4.53
2023-03-13T19:13:13.828Z,6.47
2023-03-13T19:15:42.283Z,6.77
2023-03-13T19:18:13.448Z,4.30
2023-03-13T19:20:43.574Z,4.20
2023-03-13T19:23:12.356Z,5.63
2023-03-13T19:25:42.920Z,4.03
2023-03-13T19:28:13.547Z,5.63
2023-03-13T19:30:44.636Z,4.83
2023-03-13T19:33:13.381Z,5.93
2023-03-13T19:35:41.909Z,6.23
2023-03-13T19:38:13.382Z,5.90
2023-03-13T19:40:43.891Z,6.93
2023-03-13T19:43:16.350Z,5.83
2023-03-13T19:45:46.576Z,8.27
2023-03-13T19:48:14.940Z,5.73
2023-03-13T19:50:43.283Z,6.43
2023-03-13T19:53:11.767Z,5.77
2023-03-13T19:55:40.495Z,5.40
2023-03-13T19:58:09.014Z,5.93
2023-03-13T20:00:38.996Z,7.80
2023-03-13T20:03:09.900Z,5.83
2023-03-13T20:05:39.820Z,6.87
2023-03-13T20:08:08.283Z,6.23
2023-03-13T20:10:36.706Z,6.10
2023-03-13T20:13:05.082Z,5.63
2023-03-13T20:15:34.065Z,6.10
2023-03-13T20:18:09.116Z,6.03
2023-03-13T20:20:37.506Z,11.17
2023-03-13T20:23:05.910Z,7.00
2023-03-13T20:25:34.380Z,8.67
2023-03-13T20:28:03.310Z,9.33
2023-03-13T20:30:33.190Z,8.67
2023-03-13T20:33:01.634Z,9.50
2023-03-13T20:35:32.141Z,7.97
2023-03-13T20:38:05.165Z,6.83
2023-03-13T20:40:36.780Z,8.43
2023-03-13T20:43:05.409Z,7.53
2023-03-13T20:45:36.351Z,8.53
2023-03-13T20:48:06.473Z,7.60
2023-03-13T20:50:36.475Z,8.03
2023-03-13T20:53:05.250Z,6.27
2023-03-13T20:55:34.027Z,10.90
2023-03-13T20:58:02.435Z,5.43
2023-03-13T21:00:31.722Z,7.07
2023-03-13T21:02:59.851Z,6.73
2023-03-13T21:05:31.079Z,7.13
2023-03-13T21:08:02.592Z,8.97
2023-03-13T21:10:30.756Z,6.80
2023-03-13T21:12:59.439Z,5.50
2023-03-13T21:15:27.810Z,5.50
2023-03-13T21:17:56.620Z,4.50
2023-03-13T21:20:26.071Z,5.33
2023-03-13T21:22:54.711Z,4.37
2023-03-13T21:25:25.349Z,5.60
2023-03-13T21:27:53.623Z,6.40
2023-03-13T21:30:22.809Z,4.53
2023-03-13T21:32:59.072Z,6.87
2023-03-13T21:35:27.418Z,8.03
2023-03-13T21:37:56.707Z,5.93
2023-03-13T21:40:26.723Z,6.47
2023-03-13T21:42:54.978Z,6.30
2023-03-13T21:45:23.833Z,4.50
2023-03-13T21:47:52.656Z,4.40
2023-03-13T21:50:21.089Z,5.23
2023-03-13T21:52:52.291Z,5.40
2023-03-13T21:55:20.603Z,7.10
2023-03-13T21:57:50.391Z,4.93
2023-03-13T22:00:19.329Z,4.77
2023-03-13T22:02:47.633Z,3.17
2023-03-13T22:05:16.196Z,5.07
2023-03-13T22:07:45.447Z,2.90
2023-03-13T22:10:13.923Z,2.97
2023-03-13T22:12:42.119Z,5.47
2023-03-13T22:15:13.404Z,3.30
2023-03-13T22:17:41.548Z,4.03
2023-03-13T22:20:12.628Z,4.10
2023-03-13T22:22:42.398Z,2.33
2023-03-13T22:25:11.598Z,3.10
2023-03-13T22:27:48.985Z,2.30
2023-03-13T22:30:18.842Z,2.97
2023-03-13T22:32:47.043Z,3.53
2023-03-13T22:35:16.670Z,2.90
2023-03-13T22:37:45.703Z,3.33
2023-03-13T22:40:15.520Z,3.23
2023-03-13T22:42:43.725Z,1.93
2023-03-13T22:45:12.897Z,1.97
2023-03-13T22:47:42.939Z,1.60
2023-03-13T22:50:12.447Z,2.47
2023-03-13T22:52:41.355Z,5.37
2023-03-13T22:55:10.490Z,4.30
2023-03-13T22:57:38.846Z,3.13
2023-03-13T23:00:09.257Z,1.73
2023-03-13T23:02:38.836Z,2.03
2023-03-13T23:05:09.904Z,1.70
2023-03-13T23:07:41.427Z,3.10
2023-03-13T23:10:12.037Z,2.03
2023-03-13T23:12:43.532Z,1.80
2023-03-13T23:15:13.270Z,1.30
2023-03-13T23:17:46.991Z,2.27
2023-03-13T23:20:17.051Z,2.03
2023-03-13T23:22:50.202Z,2.63
2023-03-13T23:25:20.413Z,1.50
2023-03-13T23:27:48.914Z,2.53
2023-03-13T23:30:18.852Z,2.90
2023-03-13T23:32:48.459Z,2.27
2023-03-13T23:35:19.184Z,1.00
2023-03-13T23:37:53.921Z,1.97
2023-03-13T23:40:23.502Z,2.17
2023-03-13T23:42:53.272Z,1.40
2023-03-13T23:45:23.318Z,1.30
2023-03-13T23:47:53.900Z,2.47
2023-03-13T23:50:24.757Z,3.77
2023-03-13T23:52:52.968Z,2.80
2023-03-13T23:55:21.514Z,4.73
2023-03-13T23:57:50.710Z,2.57
